sensor_id;sensor_type;location;lat;lon;timestamp;temperature;humidity
20162;DHT22;51382;53.180;15.414;2023-03-01T00:07:36;-3.60;99.90
20162;DHT22;51382;53.180;15.414;2023-03-01T00:22:48;-3.60;99.90
20162;DHT22;51382;53.180;15.414;2023-03-01T00:37:59;-3.70;99.90
20162;DHT22;51382;53.180;15.414;2023-03-01T00:53:11;-3.80;99.90
20162;DHT22;51382;53.180;15.414;2023-03-01T01:08:23;-3.80;99.90
20162;DHT22;51382;53.180;15.414;2023-03-01T01:23:34;-3.80;99.90
20162;DHT22;51382;53.180;15.414;2023-03-01T01:38:46;-3.60;99.90
20162;DHT22;51382;53.180;15.414;2023-03-01T01:53:58;-2.70;99.90
20162;DHT22;51382;53.180;15.414;2023-03-01T02:09:12;-3.70;99.90
20162;DHT22;51382;53.180;15.414;2023-03-01T02:24:26;-3.80;99.90
20162;DHT22;51382;53.180;15.414;2023-03-01T02:39:42;-3.80;99.90
20162;DHT22;51382;53.180;15.414;2023-03-01T02:54:58;-3.90;99.90
20162;DHT22;51382;53.180;15.414;2023-03-01T03:10:11;-3.90;99.90
20162;DHT22;51382;53.180;15.414;2023-03-01T03:25:25;-3.80;99.90
20162;DHT22;51382;53.180;15.414;2023-03-01T03:40:33;-3.70;99.90
20162;DHT22;51382;53.180;15.414;2023-03-01T03:55:46;-3.80;99.90
20162;DHT22;51382;53.180;15.414;2023-03-01T04:11:00;-3.70;99.90
20162;DHT22;51382;53.180;15.414;2023-03-01T04:26:32;-3.70;99.90
20162;DHT22;51382;53.180;15.414;2023-03-01T04:41:43;-3.70;99.90
20162;DHT22;51382;53.180;15.414;2023-03-01T04:56:55;-3.60;99.90
20162;DHT22;51382;53.180;15.414;2023-03-01T05:12:06;-3.80;99.90
20162;DHT22;51382;53.180;15.414;2023-03-01T05:27:17;-3.80;99.90
20162;DHT22;51382;53.180;15.414;2023-03-01T05:42:30;-3.70;99.90
20162;DHT22;51382;53.180;15.414;2023-03-01T05:57:41;-3.60;99.90
20162;DHT22;51382;53.180;15.414;2023-03-01T06:12:47;-3.00;99.90
20162;DHT22;51382;53.180;15.414;2023-03-01T06:27:59;-1.90;99.90
20162;DHT22;51382;53.180;15.414;2023-03-01T06:43:10;-0.60;99.90
20162;DHT22;51382;53.180;15.414;2023-03-01T06:58:22;3.60;99.90
20162;DHT22;51382;53.180;15.414;2023-03-01T07:13:33;6.00;99.90
20162;DHT22;51382;53.180;15.414;2023-03-01T07:28:44;9.20;91.40
20162;DHT22;51382;53.180;15.414;2023-03-01T07:43:56;7.70;91.00
20162;DHT22;51382;53.180;15.414;2023-03-01T07:59:07;8.30;91.90
20162;DHT22;51382;53.180;15.414;2023-03-01T08:14:18;10.50;87.30
20162;DHT22;51382;53.180;15.414;2023-03-01T08:29:31;10.70;80.50
20162;DHT22;51382;53.180;15.414;2023-03-01T08:44:43;11.60;74.90
20162;DHT22;51382;53.180;15.414;2023-03-01T08:59:54;13.60;64.60
20162;DHT22;51382;53.180;15.414;2023-03-01T09:15:07;14.50;66.10
20162;DHT22;51382;53.180;15.414;2023-03-01T09:30:19;5.90;93.10
20162;DHT22;51382;53.180;15.414;2023-03-01T09:45:33;6.20;94.50
20162;DHT22;51382;53.180;15.414;2023-03-01T10:00:47;7.90;92.40
20162;DHT22;51382;53.180;15.414;2023-03-01T10:16:01;8.50;89.50
20162;DHT22;51382;53.180;15.414;2023-03-01T10:31:19;11.00;80.40
20162;DHT22;51382;53.180;15.414;2023-03-01T10:46:32;12.30;78.30
20162;DHT22;51382;53.180;15.414;2023-03-01T11:01:44;9.10;84.50
20162;DHT22;51382;53.180;15.414;2023-03-01T11:17:14;6.80;95.50
20162;DHT22;51382;53.180;15.414;2023-03-01T11:32:29;6.60;96.70
20162;DHT22;51382;53.180;15.414;2023-03-01T11:47:49;6.80;98.80
20162;DHT22;51382;53.180;15.414;2023-03-01T12:03:19;6.80;98.40
20162;DHT22;51382;53.180;15.414;2023-03-01T12:18:49;6.70;99.90
20162;DHT22;51382;53.180;15.414;2023-03-01T12:34:11;7.00;99.90
20162;DHT22;51382;53.180;15.414;2023-03-01T12:49:37;7.20;99.90
20162;DHT22;51382;53.180;15.414;2023-03-01T13:04:57;7.00;99.90
20162;DHT22;51382;53.180;15.414;2023-03-01T13:20:24;6.80;99.90
20162;DHT22;51382;53.180;15.414;2023-03-01T13:35:42;7.00;99.90
20162;DHT22;51382;53.180;15.414;2023-03-01T13:50:54;6.90;99.90
20162;DHT22;51382;53.180;15.414;2023-03-01T14:06:09;7.00;99.90
20162;DHT22;51382;53.180;15.414;2023-03-01T14:21:25;7.00;99.90
20162;DHT22;51382;53.180;15.414;2023-03-01T14:36:37;7.00;99.90
20162;DHT22;51382;53.180;15.414;2023-03-01T14:51:50;6.90;99.90
20162;DHT22;51382;53.180;15.414;2023-03-01T15:07:03;6.80;99.90
20162;DHT22;51382;53.180;15.414;2023-03-01T15:22:15;6.50;99.90
20162;DHT22;51382;53.180;15.414;2023-03-01T15:37:43;6.50;99.90
20162;DHT22;51382;53.180;15.414;2023-03-01T15:52:57;6.10;99.90
20162;DHT22;51382;53.180;15.414;2023-03-01T16:08:10;5.50;99.90
20162;DHT22;51382;53.180;15.414;2023-03-01T16:23:16;5.20;99.90
20162;DHT22;51382;53.180;15.414;2023-03-01T16:38:27;3.90;99.90
20162;DHT22;51382;53.180;15.414;2023-03-01T16:53:35;3.50;99.90
20162;DHT22;51382;53.180;15.414;2023-03-01T17:08:47;3.40;99.90
20162;DHT22;51382;53.180;15.414;2023-03-01T17:23:58;2.20;99.90
20162;DHT22;51382;53.180;15.414;2023-03-01T17:39:10;1.60;99.90
20162;DHT22;51382;53.180;15.414;2023-03-01T17:54:24;1.40;99.90
20162;DHT22;51382;53.180;15.414;2023-03-01T18:09:36;1.10;99.90
20162;DHT22;51382;53.180;15.414;2023-03-01T18:24:47;1.00;99.90
20162;DHT22;51382;53.180;15.414;2023-03-01T18:39:58;0.60;99.90
20162;DHT22;51382;53.180;15.414;2023-03-01T18:55:08;0.40;99.90
20162;DHT22;51382;53.180;15.414;2023-03-01T19:10:15;0.10;99.90
20162;DHT22;51382;53.180;15.414;2023-03-01T19:25:26;-0.10;99.90
20162;DHT22;51382;53.180;15.414;2023-03-01T19:40:38;0.00;99.90
20162;DHT22;51382;53.180;15.414;2023-03-01T19:55:49;0.00;99.90
20162;DHT22;51382;53.180;15.414;2023-03-01T20:11:08;0.10;99.90
20162;DHT22;51382;53.180;15.414;2023-03-01T20:26:20;-0.20;99.90
20162;DHT22;51382;53.180;15.414;2023-03-01T20:41:33;-0.20;99.90
20162;DHT22;51382;53.180;15.414;2023-03-01T20:56:46;-0.40;99.90
20162;DHT22;51382;53.180;15.414;2023-03-01T21:11:57;-0.70;99.90
20162;DHT22;51382;53.180;15.414;2023-03-01T21:27:08;-0.90;99.90
20162;DHT22;51382;53.180;15.414;2023-03-01T21:42:20;-1.00;99.90
20162;DHT22;51382;53.180;15.414;2023-03-01T21:57:32;-1.40;99.90
20162;DHT22;51382;53.180;15.414;2023-03-01T22:12:51;-1.50;99.90
20162;DHT22;51382;53.180;15.414;2023-03-01T22:28:03;-1.60;99.90
20162;DHT22;51382;53.180;15.414;2023-03-01T22:43:15;-1.70;99.90
20162;DHT22;51382;53.180;15.414;2023-03-01T22:58:26;-1.70;99.90
20162;DHT22;51382;53.180;15.414;2023-03-01T23:13:38;-1.80;99.90
20162;DHT22;51382;53.180;15.414;2023-03-01T23:28:50;-1.90;99.90
20162;DHT22;51382;53.180;15.414;2023-03-01T23:44:03;-2.10;99.90
20162;DHT22;51382;53.180;15.414;2023-03-01T23:59:15;-2.20;99.90
